sensor_id;sensor_type;location;lat;lon;timestamp;pressure;altitude;pressure_sealevel;temperature;humidity
28911;BME280;16028;42.642;23.310;2023-04-06T00:02:01;93712.28;;;0.84;75.65
28911;BME280;16028;42.642;23.310;2023-04-06T00:04:27;93711.00;;;0.91;75.86
28911;BME280;16028;42.642;23.310;2023-04-06T00:06:54;93697.50;;;1.01;75.16
28911;BME280;16028;42.642;23.310;2023-04-06T00:09:21;93701.81;;;1.01;75.02
28911;BME280;16028;42.642;23.310;2023-04-06T00:11:48;93707.94;;;0.98;74.93
28911;BME280;16028;42.642;23.310;2023-04-06T00:14:14;93697.38;;;1.03;75.19
28911;BME280;16028;42.642;23.310;2023-04-06T00:16:43;93700.69;;;1.05;74.39
28911;BME280;16028;42.642;23.310;2023-04-06T00:19:10;93702.75;;;1.13;74.83
28911;BME280;16028;42.642;23.310;2023-04-06T00:21:37;93699.97;;;1.16;74.41
28911;BME280;16028;42.642;23.310;2023-04-06T00:24:04;93694.44;;;1.22;74.28
28911;BME280;16028;42.642;23.310;2023-04-06T00:26:31;93686.25;;;1.17;73.54
28911;BME280;16028;42.642;23.310;2023-04-06T00:28:57;93690.56;;;1.16;73.44
28911;BME280;16028;42.642;23.310;2023-04-06T00:31:24;93685.03;;;1.22;74.28
28911;BME280;16028;42.642;23.310;2023-04-06T00:33:52;93682.66;;;1.19;73.51
28911;BME280;16028;42.642;23.310;2023-04-06T00:36:18;93693.53;;;1.23;73.71
28911;BME280;16028;42.642;23.310;2023-04-06T00:38:45;93688.41;;;1.10;73.89
28911;BME280;16028;42.642;23.310;2023-04-06T00:41:11;93690.31;;;0.94;74.07
28911;BME280;16028;42.642;23.310;2023-04-06T00:43:38;93680.69;;;0.97;75.11
28911;BME280;16028;42.642;23.310;2023-04-06T00:46:04;93691.56;;;1.01;74.46
28911;BME280;16028;42.642;23.310;2023-04-06T00:48:31;93686.72;;;0.96;74.72
28911;BME280;16028;42.642;23.310;2023-04-06T00:51:00;93673.22;;;0.94;75.01
28911;BME280;16028;42.642;23.310;2023-04-06T00:53:27;93675.78;;;0.94;75.79
28911;BME280;16028;42.642;23.310;2023-04-06T00:55:53;93678.22;;;0.96;75.61
28911;BME280;16028;42.642;23.310;2023-04-06T00:58:20;93673.50;;;0.90;75.09
28911;BME280;16028;42.642;23.310;2023-04-06T01:00:46;93679.44;;;0.90;75.95
28911;BME280;16028;42.642;23.310;2023-04-06T01:03:13;93674.66;;;0.98;76.11
28911;BME280;16028;42.642;23.310;2023-04-06T01:05:39;93671.91;;;1.01;75.69
28911;BME280;16028;42.642;23.310;2023-04-06T01:08:09;93670.06;;;1.03;75.60
28911;BME280;16028;42.642;23.310;2023-04-06T01:10:35;93672.63;;;1.03;76.03
28911;BME280;16028;42.642;23.310;2023-04-06T01:13:02;93670.25;;;1.00;76.02
28911;BME280;16028;42.642;23.310;2023-04-06T01:15:28;93669.97;;;1.05;75.77
28911;BME280;16028;42.642;23.310;2023-04-06T01:17:55;93665.56;;;1.07;75.36
28911;BME280;16028;42.642;23.310;2023-04-06T01:20:22;93665.13;;;1.00;76.26
28911;BME280;16028;42.642;23.310;2023-04-06T01:22:50;93662.78;;;0.97;76.30
28911;BME280;16028;42.642;23.310;2023-04-06T01:25:16;93658.16;;;1.02;75.90
28911;BME280;16028;42.642;23.310;2023-04-06T01:27:43;93664.09;;;0.90;75.96
28911;BME280;16028;42.642;23.310;2023-04-06T01:30:10;93666.03;;;0.87;76.69
28911;BME280;16028;42.642;23.310;2023-04-06T01:32:37;93665.09;;;0.88;76.71
28911;BME280;16028;42.642;23.310;2023-04-06T01:35:03;93662.00;;;0.70;77.21
28911;BME280;16028;42.642;23.310;2023-04-06T01:37:30;93660.63;;;0.65;77.89
28911;BME280;16028;42.642;23.310;2023-04-06T01:39:59;93660.66;;;0.77;78.11
28911;BME280;16028;42.642;23.310;2023-04-06T01:42:25;93653.84;;;0.90;77.93
28911;BME280;16028;42.642;23.310;2023-04-06T01:44:53;93663.06;;;0.93;77.40
28911;BME280;16028;42.642;23.310;2023-04-06T01:47:19;93654.25;;;0.84;77.51
28911;BME280;16028;42.642;23.310;2023-04-06T01:49:46;93648.22;;;0.85;77.85
28911;BME280;16028;42.642;23.310;2023-04-06T01:52:12;93652.41;;;0.86;77.33
28911;BME280;16028;42.642;23.310;2023-04-06T01:54:39;93647.28;;;0.86;77.32
28911;BME280;16028;42.642;23.310;2023-04-06T01:57:07;93647.06;;;0.89;77.69
28911;BME280;16028;42.642;23.310;2023-04-06T01:59:35;93645.88;;;0.95;76.81
28911;BME280;16028;42.642;23.310;2023-04-06T02:02:02;93648.53;;;0.93;76.84
28911;BME280;16028;42.642;23.310;2023-04-06T02:04:29;93647.81;;;0.91;76.97
28911;BME280;16028;42.642;23.310;2023-04-06T02:06:55;93656.94;;;0.95;77.23
28911;BME280;16028;42.642;23.310;2023-04-06T02:09:22;93649.78;;;1.00;77.63
28911;BME280;16028;42.642;23.310;2023-04-06T02:11:48;93647.28;;;0.99;77.03
28911;BME280;16028;42.642;23.310;2023-04-06T02:14:16;93657.16;;;0.92;77.74
28911;BME280;16028;42.642;23.310;2023-04-06T02:16:43;93656.34;;;1.04;77.47
28911;BME280;16028;42.642;23.310;2023-04-06T02:19:09;93645.69;;;1.11;77.40
28911;BME280;16028;42.642;23.310;2023-04-06T02:21:36;93648.97;;;1.13;76.90
28911;BME280;16028;42.642;23.310;2023-04-06T02:24:03;93651.53;;;1.13;76.87
28911;BME280;16028;42.642;23.310;2023-04-06T02:26:30;93643.44;;;1.19;76.98
28911;BME280;16028;42.642;23.310;2023-04-06T02:28:56;93646.72;;;1.21;76.85
28911;BME280;16028;42.642;23.310;2023-04-06T02:31:24;93643.66;;;1.28;76.53
28911;BME280;16028;42.642;23.310;2023-04-06T02:33:51;93654.00;;;1.27;76.51
28911;BME280;16028;42.642;23.310;2023-04-06T02:36:17;93646.00;;;1.19;76.36
28911;BME280;16028;42.642;23.310;2023-04-06T02:38:44;93639.97;;;1.20;76.68
28911;BME280;16028;42.642;23.310;2023-04-06T02:41:11;93644.38;;;1.18;76.79
28911;BME280;16028;42.642;23.310;2023-04-06T02:43:37;93649.69;;;1.15;76.75
28911;BME280;16028;42.642;23.310;2023-04-06T02:46:04;93639.97;;;1.20;76.93
28911;BME280;16028;42.642;23.310;2023-04-06T02:48:32;93636.56;;;1.19;76.48
28911;BME280;16028;42.642;23.310;2023-04-06T02:51:01;93625.22;;;1.23;76.21
28911;BME280;16028;42.642;23.310;2023-04-06T02:53:27;93643.03;;;1.25;76.31
28911;BME280;16028;42.642;23.310;2023-04-06T02:55:54;93623.78;;;1.32;76.88
28911;BME280;16028;42.642;23.310;2023-04-06T02:58:21;93632.06;;;1.35;76.01
28911;BME280;16028;42.642;23.310;2023-04-06T03:00:48;93630.97;;;1.27;75.86
28911;BME280;16028;42.642;23.310;2023-04-06T03:03:15;93632.19;;;1.21;76.37
28911;BME280;16028;42.642;23.310;2023-04-06T03:05:43;93632.50;;;1.29;76.57
28911;BME280;16028;42.642;23.310;2023-04-06T03:08:09;93634.97;;;1.31;76.20
28911;BME280;16028;42.642;23.310;2023-04-06T03:10:36;93632.19;;;1.21;76.17
28911;BME280;16028;42.642;23.310;2023-04-06T03:13:02;93624.19;;;1.26;76.25
28911;BME280;16028;42.642;23.310;2023-04-06T03:15:29;93627.88;;;1.22;76.67
28911;BME280;16028;42.642;23.310;2023-04-06T03:17:56;93620.50;;;1.30;76.53
28911;BME280;16028;42.642;23.310;2023-04-06T03:20:23;93626.13;;;1.22;76.57
28911;BME280;16028;42.642;23.310;2023-04-06T03:22:51;93628.69;;;1.22;76.71
28911;BME280;16028;42.642;23.310;2023-04-06T03:25:17;93637.41;;;1.20;77.19
28911;BME280;16028;42.642;23.310;2023-04-06T03:27:44;93633.94;;;1.21;77.29
28911;BME280;16028;42.642;23.310;2023-04-06T03:30:11;93625.91;;;1.25;77.27
28911;BME280;16028;42.642;23.310;2023-04-06T03:32:37;93626.94;;;1.23;76.62
28911;BME280;16028;42.642;23.310;2023-04-06T03:35:04;93636.56;;;1.19;76.32
28911;BME280;16028;42.642;23.310;2023-04-06T03:37:31;93626.34;;;1.19;77.04
28911;BME280;16028;42.642;23.310;2023-04-06T03:39:59;93640.78;;;1.20;76.66
28911;BME280;16028;42.642;23.310;2023-04-06T03:42:25;93640.78;;;1.20;76.20
28911;BME280;16028;42.642;23.310;2023-04-06T03:44:52;93643.56;;;1.17;76.21
28911;BME280;16028;42.642;23.310;2023-04-06T03:47:19;93637.69;;;1.28;76.39
28911;BME280;16028;42.642;23.310;2023-04-06T03:49:45;93641.81;;;1.30;76.19
28911;BME280;16028;42.642;23.310;2023-04-06T03:52:12;93641.19;;;1.27;76.24
28911;BME280;16028;42.642;23.310;2023-04-06T03:54:38;93628.47;;;1.25;76.49
28911;BME280;16028;42.642;23.310;2023-04-06T03:57:06;93634.53;;;1.24;76.33
28911;BME280;16028;42.642;23.310;2023-04-06T03:59:33;93636.91;;;1.27;76.74
28911;BME280;16028;42.642;23.310;2023-04-06T04:02:00;93630.75;;;1.30;76.38
28911;BME280;16028;42.642;23.310;2023-04-06T04:04:26;93628.06;;;1.31;75.99
28911;BME280;16028;42.642;23.310;2023-04-06T04:06:53;93629.50;;;1.35;76.21
28911;BME280;16028;42.642;23.310;2023-04-06T04:09:19;93642.84;;;1.40;75.92
28911;BME280;16028;42.642;23.310;2023-04-06T04:11:46;93630.75;;;1.42;75.57
28911;BME280;16028;42.642;23.310;2023-04-06T04:14:14;93628.59;;;1.36;75.68
28911;BME280;16028;42.642;23.310;2023-04-06T04:16:40;93633.59;;;1.38;75.30
28911;BME280;16028;42.642;23.310;2023-04-06T04:19:07;93640.78;;;1.45;74.86
28911;BME280;16028;42.642;23.310;2023-04-06T04:21:34;93635.88;;;1.42;74.00
28911;BME280;16028;42.642;23.310;2023-04-06T04:24:00;93631.25;;;1.47;75.24
28911;BME280;16028;42.642;23.310;2023-04-06T04:26:27;93634.13;;;1.55;75.35
28911;BME280;16028;42.642;23.310;2023-04-06T04:28:53;93638.94;;;1.47;75.18
28911;BME280;16028;42.642;23.310;2023-04-06T04:31:21;93635.47;;;1.48;74.69
28911;BME280;16028;42.642;23.310;2023-04-06T04:33:48;93641.50;;;1.47;74.75
28911;BME280;16028;42.642;23.310;2023-04-06T04:36:15;93640.38;;;1.51;75.14
28911;BME280;16028;42.642;23.310;2023-04-06T04:38:41;93651.94;;;1.57;74.65
28911;BME280;16028;42.642;23.310;2023-04-06T04:41:08;93652.25;;;1.65;75.20
28911;BME280;16028;42.642;23.310;2023-04-06T04:43:34;93645.06;;;1.70;73.72
28911;BME280;16028;42.642;23.310;2023-04-06T04:46:01;93649.09;;;1.62;74.03
28911;BME280;16028;42.642;23.310;2023-04-06T04:48:30;93645.50;;;1.51;74.72
28911;BME280;16028;42.642;23.310;2023-04-06T04:50:56;93643.34;;;1.45;74.88
28911;BME280;16028;42.642;23.310;2023-04-06T04:53:23;93645.00;;;1.46;75.07
28911;BME280;16028;42.642;23.310;2023-04-06T04:55:50;93644.88;;;1.48;75.06
28911;BME280;16028;42.642;23.310;2023-04-06T04:58:16;93641.19;;;1.52;75.26
28911;BME280;16028;42.642;23.310;2023-04-06T05:00:44;93643.97;;;1.49;74.70
28911;BME280;16028;42.642;23.310;2023-04-06T05:03:11;93636.06;;;1.65;75.06
28911;BME280;16028;42.642;23.310;2023-04-06T05:05:42;93643.72;;;1.77;74.65
28911;BME280;16028;42.642;23.310;2023-04-06T05:08:08;93638.19;;;1.83;75.57
28911;BME280;16028;42.642;23.310;2023-04-06T05:10:35;93636.03;;;1.90;74.83
28911;BME280;16028;42.642;23.310;2023-04-06T05:13:02;93637.97;;;1.86;74.42
28911;BME280;16028;42.642;23.310;2023-04-06T05:15:28;93626.28;;;1.82;74.42
28911;BME280;16028;42.642;23.310;2023-04-06T05:17:55;93640.25;;;1.78;75.05
28911;BME280;16028;42.642;23.310;2023-04-06T05:20:21;93638.69;;;1.88;74.62
28911;BME280;16028;42.642;23.310;2023-04-06T05:22:49;93628.28;;;2.02;75.24
28911;BME280;16028;42.642;23.310;2023-04-06T05:25:16;93635.75;;;2.18;72.62
28911;BME280;16028;42.642;23.310;2023-04-06T05:27:42;93636.72;;;2.28;73.77
28911;BME280;16028;42.642;23.310;2023-04-06T05:30:09;93640.56;;;2.46;72.82
28911;BME280;16028;42.642;23.310;2023-04-06T05:32:36;93637.91;;;2.48;73.49
28911;BME280;16028;42.642;23.310;2023-04-06T05:35:02;93637.25;;;2.57;73.71
28911;BME280;16028;42.642;23.310;2023-04-06T05:37:29;93644.56;;;2.74;72.41
28911;BME280;16028;42.642;23.310;2023-04-06T05:39:57;93631.75;;;2.85;71.31
28911;BME280;16028;42.642;23.310;2023-04-06T05:42:23;93631.31;;;2.91;70.96
28911;BME280;16028;42.642;23.310;2023-04-06T05:44:50;93639.97;;;2.90;70.70
28911;BME280;16028;42.642;23.310;2023-04-06T05:47:17;93633.41;;;2.86;71.96
28911;BME280;16028;42.642;23.310;2023-04-06T05:49:43;93636.88;;;2.85;72.22
28911;BME280;16028;42.642;23.310;2023-04-06T05:52:10;93637.72;;;2.97;71.31
28911;BME280;16028;42.642;23.310;2023-04-06T05:54:36;93626.44;;;2.99;71.17
28911;BME280;16028;42.642;23.310;2023-04-06T05:57:04;93629.47;;;2.93;71.52
28911;BME280;16028;42.642;23.310;2023-04-06T05:59:31;93626.28;;;2.90;71.34
28911;BME280;16028;42.642;23.310;2023-04-06T06:01:57;93615.28;;;2.88;71.33
28911;BME280;16028;42.642;23.310;2023-04-06T06:04:26;93622.41;;;2.84;72.06
28911;BME280;16028;42.642;23.310;2023-04-06T06:06:52;93613.69;;;2.87;72.09
28911;BME280;16028;42.642;23.310;2023-04-06T06:09:19;93620.94;;;2.93;72.42
28911;BME280;16028;42.642;23.310;2023-04-06T06:11:46;93618.13;;;2.96;72.23
28911;BME280;16028;42.642;23.310;2023-04-06T06:14:13;93623.50;;;2.93;70.91
28911;BME280;16028;42.642;23.310;2023-04-06T06:16:43;93625.25;;;2.92;72.03
28911;BME280;16028;42.642;23.310;2023-04-06T06:19:09;93627.81;;;2.92;72.00
28911;BME280;16028;42.642;23.310;2023-04-06T06:21:36;93628.63;;;2.93;72.33
28911;BME280;16028;42.642;23.310;2023-04-06T06:24:02;93623.88;;;2.99;72.30
28911;BME280;16028;42.642;23.310;2023-04-06T06:26:29;93615.00;;;3.03;71.34
28911;BME280;16028;42.642;23.310;2023-04-06T06:28:56;93616.31;;;3.09;72.81
28911;BME280;16028;42.642;23.310;2023-04-06T06:31:24;93612.22;;;3.17;71.53
28911;BME280;16028;42.642;23.310;2023-04-06T06:33:51;93615.50;;;3.19;70.02
28911;BME280;16028;42.642;23.310;2023-04-06T06:36:17;93619.72;;;3.20;70.22
28911;BME280;16028;42.642;23.310;2023-04-06T06:38:44;93612.38;;;3.27;71.22
28911;BME280;16028;42.642;23.310;2023-04-06T06:41:11;93612.13;;;3.30;69.57
28911;BME280;16028;42.642;23.310;2023-04-06T06:43:37;93615.88;;;3.26;70.29
28911;BME280;16028;42.642;23.310;2023-04-06T06:46:04;93617.50;;;3.27;70.63
28911;BME280;16028;42.642;23.310;2023-04-06T06:48:32;93620.66;;;3.31;68.73
28911;BME280;16028;42.642;23.310;2023-04-06T06:50:59;93625.25;;;3.38;69.14
28911;BME280;16028;42.642;23.310;2023-04-06T06:53:25;93624.44;;;3.38;68.02
28911;BME280;16028;42.642;23.310;2023-04-06T06:55:52;93625.81;;;3.42;69.60
28911;BME280;16028;42.642;23.310;2023-04-06T06:58:19;93620.56;;;3.54;70.59
28911;BME280;16028;42.642;23.310;2023-04-06T07:00:45;93625.38;;;3.59;68.71
28911;BME280;16028;42.642;23.310;2023-04-06T07:03:12;93620.81;;;3.51;68.89
28911;BME280;16028;42.642;23.310;2023-04-06T07:05:40;93611.25;;;3.53;70.00
28911;BME280;16028;42.642;23.310;2023-04-06T07:08:14;93614.50;;;3.55;70.43
28911;BME280;16028;42.642;23.310;2023-04-06T07:10:40;93607.72;;;3.65;68.69
28911;BME280;16028;42.642;23.310;2023-04-06T07:13:07;93609.00;;;3.71;69.83
28911;BME280;16028;42.642;23.310;2023-04-06T07:15:34;93607.03;;;3.74;67.84
28911;BME280;16028;42.642;23.310;2023-04-06T07:18:01;93605.03;;;3.67;67.33
28911;BME280;16028;42.642;23.310;2023-04-06T07:20:27;93608.31;;;3.58;68.62
28911;BME280;16028;42.642;23.310;2023-04-06T07:22:55;93606.31;;;3.61;69.27
28911;BME280;16028;42.642;23.310;2023-04-06T07:25:22;93609.38;;;3.66;69.10
28911;BME280;16028;42.642;23.310;2023-04-06T07:27:48;93606.44;;;3.71;68.30
28911;BME280;16028;42.642;23.310;2023-04-06T07:30:15;93608.44;;;3.79;69.66
28911;BME280;16028;42.642;23.310;2023-04-06T07:32:43;93606.66;;;3.90;68.17
28911;BME280;16028;42.642;23.310;2023-04-06T07:35:10;93598.84;;;3.81;67.04
28911;BME280;16028;42.642;23.310;2023-04-06T07:37:36;93609.94;;;3.81;67.35
28911;BME280;16028;42.642;23.310;2023-04-06T07:40:05;93604.56;;;3.84;67.61
28911;BME280;16028;42.642;23.310;2023-04-06T07:42:32;93609.63;;;3.86;67.80
28911;BME280;16028;42.642;23.310;2023-04-06T07:44:59;93596.84;;;3.84;68.30
28911;BME280;16028;42.642;23.310;2023-04-06T07:47:30;93604.81;;;3.81;67.99
28911;BME280;16028;42.642;23.310;2023-04-06T07:49:57;93605.72;;;3.80;68.49
28911;BME280;16028;42.642;23.310;2023-04-06T07:52:23;93602.47;;;3.89;69.16
28911;BME280;16028;42.642;23.310;2023-04-06T07:54:50;93603.03;;;4.04;67.61
28911;BME280;16028;42.642;23.310;2023-04-06T07:57:18;93598.00;;;4.02;67.45
28911;BME280;16028;42.642;23.310;2023-04-06T07:59:45;93605.47;;;4.05;67.97
28911;BME280;16028;42.642;23.310;2023-04-06T08:02:11;93602.91;;;4.16;66.60
28911;BME280;16028;42.642;23.310;2023-04-06T08:04:41;93608.50;;;4.21;66.02
28911;BME280;16028;42.642;23.310;2023-04-06T08:07:07;93598.44;;;4.18;66.28
28911;BME280;16028;42.642;23.310;2023-04-06T08:09:34;93591.88;;;4.25;65.46
28911;BME280;16028;42.642;23.310;2023-04-06T08:12:00;93597.75;;;4.28;65.88
28911;BME280;16028;42.642;23.310;2023-04-06T08:14:28;93596.53;;;4.32;67.06
28911;BME280;16028;42.642;23.310;2023-04-06T08:16:55;93605.41;;;4.50;66.35
28911;BME280;16028;42.642;23.310;2023-04-06T08:19:22;93589.41;;;4.35;64.73
28911;BME280;16028;42.642;23.310;2023-04-06T08:21:48;93609.72;;;3.95;65.23
28911;BME280;16028;42.642;23.310;2023-04-06T08:24:16;93616.00;;;4.02;66.70
28911;BME280;16028;42.642;23.310;2023-04-06T08:26:43;93607.47;;;4.13;66.40
28911;BME280;16028;42.642;23.310;2023-04-06T08:29:09;93617.13;;;4.32;66.64
28911;BME280;16028;42.642;23.310;2023-04-06T08:31:37;93604.25;;;4.43;66.75
28911;BME280;16028;42.642;23.310;2023-04-06T08:34:04;93610.44;;;4.51;66.04
28911;BME280;16028;42.642;23.310;2023-04-06T08:36:32;93616.09;;;4.66;65.37
28911;BME280;16028;42.642;23.310;2023-04-06T08:38:58;93611.34;;;4.50;63.83
28911;BME280;16028;42.642;23.310;2023-04-06T08:41:25;93625.91;;;4.40;65.72
28911;BME280;16028;42.642;23.310;2023-04-06T08:43:53;93621.81;;;4.38;64.35
28911;BME280;16028;42.642;23.310;2023-04-06T08:46:22;93623.06;;;4.54;64.30
28911;BME280;16028;42.642;23.310;2023-04-06T08:48:55;93625.28;;;4.59;63.54
28911;BME280;16028;42.642;23.310;2023-04-06T08:51:22;93614.50;;;4.54;64.46
28911;BME280;16028;42.642;23.310;2023-04-06T08:53:49;93613.94;;;4.50;64.15
28911;BME280;16028;42.642;23.310;2023-04-06T08:56:16;93605.59;;;4.58;64.11
28911;BME280;16028;42.642;23.310;2023-04-06T08:58:43;93614.94;;;4.70;63.84
28911;BME280;16028;42.642;23.310;2023-04-06T09:01:11;93610.31;;;4.85;64.93
28911;BME280;16028;42.642;23.310;2023-04-06T09:03:38;93608.94;;;5.01;65.42
28911;BME280;16028;42.642;23.310;2023-04-06T09:06:07;93607.31;;;5.21;64.25
28911;BME280;16028;42.642;23.310;2023-04-06T09:08:34;93618.34;;;5.23;63.16
28911;BME280;16028;42.642;23.310;2023-04-06T09:11:01;93608.50;;;5.38;63.55
28911;BME280;16028;42.642;23.310;2023-04-06T09:13:28;93609.78;;;5.22;61.18
28911;BME280;16028;42.642;23.310;2023-04-06T09:16:01;93615.97;;;4.99;61.63
28911;BME280;16028;42.642;23.310;2023-04-06T09:18:28;93621.22;;;5.09;63.36
28911;BME280;16028;42.642;23.310;2023-04-06T09:20:58;93622.47;;;5.14;62.50
28911;BME280;16028;42.642;23.310;2023-04-06T09:23:26;93609.94;;;5.30;61.82
28911;BME280;16028;42.642;23.310;2023-04-06T09:26:04;93605.69;;;5.41;59.99
28911;BME280;16028;42.642;23.310;2023-04-06T09:28:40;93610.31;;;5.47;60.78
28911;BME280;16028;42.642;23.310;2023-04-06T09:31:07;93606.63;;;5.40;58.57
28911;BME280;16028;42.642;23.310;2023-04-06T09:33:36;93611.66;;;5.20;59.66
28911;BME280;16028;42.642;23.310;2023-04-06T09:36:03;93607.31;;;5.21;61.53
28911;BME280;16028;42.642;23.310;2023-04-06T09:38:31;93601.03;;;5.14;60.52
28911;BME280;16028;42.642;23.310;2023-04-06T09:40:58;93609.44;;;4.95;60.92
28911;BME280;16028;42.642;23.310;2023-04-06T09:43:25;93603.16;;;5.09;61.34
28911;BME280;16028;42.642;23.310;2023-04-06T09:45:51;93607.47;;;5.19;62.12
28911;BME280;16028;42.642;23.310;2023-04-06T09:48:19;93599.03;;;5.38;60.21
28911;BME280;16028;42.642;23.310;2023-04-06T09:50:46;93600.56;;;5.50;59.83
28911;BME280;16028;42.642;23.310;2023-04-06T09:53:13;93602.34;;;5.50;59.57
28911;BME280;16028;42.642;23.310;2023-04-06T09:55:42;93610.72;;;5.42;59.31
28911;BME280;16028;42.642;23.310;2023-04-06T09:58:09;93608.41;;;5.39;59.42
28911;BME280;16028;42.642;23.310;2023-04-06T10:00:40;93610.72;;;5.42;59.13
28911;BME280;16028;42.642;23.310;2023-04-06T10:03:11;93616.88;;;5.51;59.93
28911;BME280;16028;42.642;23.310;2023-04-06T10:05:43;93606.88;;;5.57;58.92
28911;BME280;16028;42.642;23.310;2023-04-06T10:08:10;93594.28;;;5.64;57.45
28911;BME280;16028;42.642;23.310;2023-04-06T10:10:37;93600.94;;;5.66;57.76
28911;BME280;16028;42.642;23.310;2023-04-06T10:13:05;93608.31;;;5.71;57.65
28911;BME280;16028;42.642;23.310;2023-04-06T10:15:32;93597.28;;;5.69;58.92
28911;BME280;16028;42.642;23.310;2023-04-06T10:18:00;93597.31;;;5.78;59.44
28911;BME280;16028;42.642;23.310;2023-04-06T10:20:29;93585.97;;;5.91;57.28
28911;BME280;16028;42.642;23.310;2023-04-06T10:22:59;93588.06;;;5.76;57.29
28911;BME280;16028;42.642;23.310;2023-04-06T10:25:28;93596.38;;;5.79;59.10
28911;BME280;16028;42.642;23.310;2023-04-06T10:28:00;93581.97;;;5.77;57.90
28911;BME280;16028;42.642;23.310;2023-04-06T10:30:30;93589.38;;;5.91;57.58
28911;BME280;16028;42.642;23.310;2023-04-06T10:32:57;93584.03;;;5.83;55.88
28911;BME280;16028;42.642;23.310;2023-04-06T10:35:23;93577.75;;;5.76;57.53
28911;BME280;16028;42.642;23.310;2023-04-06T10:37:51;93569.50;;;5.82;57.17
28911;BME280;16028;42.642;23.310;2023-04-06T10:40:18;93574.41;;;5.85;57.42
28911;BME280;16028;42.642;23.310;2023-04-06T10:42:45;93572.69;;;5.95;57.56
28911;BME280;16028;42.642;23.310;2023-04-06T10:45:18;93582.53;;;6.11;58.39
28911;BME280;16028;42.642;23.310;2023-04-06T10:47:47;93582.13;;;6.06;55.80
28911;BME280;16028;42.642;23.310;2023-04-06T10:50:14;93568.38;;;6.05;58.22
28911;BME280;16028;42.642;23.310;2023-04-06T10:52:41;93578.75;;;6.15;58.13
28911;BME280;16028;42.642;23.310;2023-04-06T10:55:08;93584.03;;;6.13;57.36
28911;BME280;16028;42.642;23.310;2023-04-06T10:57:35;93580.31;;;6.06;56.28
28911;BME280;16028;42.642;23.310;2023-04-06T11:00:03;93573.56;;;6.05;58.30
28911;BME280;16028;42.642;23.310;2023-04-06T11:02:29;93569.88;;;6.08;58.62
28911;BME280;16028;42.642;23.310;2023-04-06T11:04:57;93568.25;;;6.07;57.30
28911;BME280;16028;42.642;23.310;2023-04-06T11:07:24;93563.88;;;5.98;57.67
28911;BME280;16028;42.642;23.310;2023-04-06T11:09:52;93567.16;;;5.79;57.24
28911;BME280;16028;42.642;23.310;2023-04-06T11:12:22;93562.34;;;5.65;58.23
28911;BME280;16028;42.642;23.310;2023-04-06T11:14:52;93557.63;;;5.70;60.20
28911;BME280;16028;42.642;23.310;2023-04-06T11:17:25;93563.41;;;5.83;58.30
28911;BME280;16028;42.642;23.310;2023-04-06T11:19:51;93559.50;;;5.89;57.47
28911;BME280;16028;42.642;23.310;2023-04-06T11:22:19;93547.16;;;5.92;58.03
28911;BME280;16028;42.642;23.310;2023-04-06T11:24:46;93555.28;;;5.88;57.08
28911;BME280;16028;42.642;23.310;2023-04-06T11:27:13;93548.25;;;5.90;58.74
28911;BME280;16028;42.642;23.310;2023-04-06T11:29:41;93548.78;;;5.93;57.75
28911;BME280;16028;42.642;23.310;2023-04-06T11:32:08;93548.84;;;5.82;56.32
28911;BME280;16028;42.642;23.310;2023-04-06T11:34:35;93548.56;;;5.75;57.11
28911;BME280;16028;42.642;23.310;2023-04-06T11:37:04;93551.03;;;5.77;57.43
28911;BME280;16028;42.642;23.310;2023-04-06T11:39:38;93545.28;;;5.73;58.53
28911;BME280;16028;42.642;23.310;2023-04-06T11:42:05;93545.63;;;5.59;57.72
28911;BME280;16028;42.642;23.310;2023-04-06T11:44:34;93543.19;;;5.58;58.95
28911;BME280;16028;42.642;23.310;2023-04-06T11:47:01;93540.88;;;5.55;58.54
28911;BME280;16028;42.642;23.310;2023-04-06T11:49:28;93535.63;;;5.66;59.31
28911;BME280;16028;42.642;23.310;2023-04-06T11:51:55;93537.03;;;5.79;59.28
28911;BME280;16028;42.642;23.310;2023-04-06T11:54:29;93532.06;;;5.88;57.80
28911;BME280;16028;42.642;23.310;2023-04-06T11:56:57;93537.78;;;5.91;56.82
28911;BME280;16028;42.642;23.310;2023-04-06T11:59:24;93536.16;;;5.90;57.60
28911;BME280;16028;42.642;23.310;2023-04-06T12:01:50;93544.31;;;5.95;57.54
28911;BME280;16028;42.642;23.310;2023-04-06T12:04:18;93543.09;;;5.99;57.19
28911;BME280;16028;42.642;23.310;2023-04-06T12:06:44;93537.53;;;6.04;56.73
28911;BME280;16028;42.642;23.310;2023-04-06T12:09:11;93536.97;;;6.00;58.07
28911;BME280;16028;42.642;23.310;2023-04-06T12:11:37;93541.06;;;5.72;55.82
28911;BME280;16028;42.642;23.310;2023-04-06T12:14:08;93536.81;;;5.62;56.99
28911;BME280;16028;42.642;23.310;2023-04-06T12:16:34;93534.75;;;5.56;56.30
28911;BME280;16028;42.642;23.310;2023-04-06T12:19:01;93535.16;;;5.51;56.84
28911;BME280;16028;42.642;23.310;2023-04-06T12:21:28;93537.47;;;5.54;57.65
28911;BME280;16028;42.642;23.310;2023-04-06T12:23:56;93532.41;;;5.43;56.96
28911;BME280;16028;42.642;23.310;2023-04-06T12:26:23;93532.28;;;5.45;58.33
28911;BME280;16028;42.642;23.310;2023-04-06T12:28:49;93539.56;;;5.40;59.40
28911;BME280;16028;42.642;23.310;2023-04-06T12:31:18;93535.69;;;5.24;58.74
28911;BME280;16028;42.642;23.310;2023-04-06T12:33:46;93542.56;;;5.14;58.56
28911;BME280;16028;42.642;23.310;2023-04-06T12:36:13;93532.56;;;5.21;60.31
28911;BME280;16028;42.642;23.310;2023-04-06T12:38:40;93534.06;;;5.23;59.55
28911;BME280;16028;42.642;23.310;2023-04-06T12:41:09;93535.44;;;5.27;58.97
28911;BME280;16028;42.642;23.310;2023-04-06T12:43:36;93529.22;;;5.30;59.01
28911;BME280;16028;42.642;23.310;2023-04-06T12:46:02;93520.31;;;5.44;57.33
28911;BME280;16028;42.642;23.310;2023-04-06T12:48:30;93528.63;;;5.47;58.02
28911;BME280;16028;42.642;23.310;2023-04-06T12:51:03;93518.47;;;5.55;56.89
28911;BME280;16028;42.642;23.310;2023-04-06T12:53:30;93525.72;;;5.61;56.36
28911;BME280;16028;42.642;23.310;2023-04-06T12:55:57;93523.44;;;5.68;56.08
28911;BME280;16028;42.642;23.310;2023-04-06T12:58:24;93523.94;;;5.71;55.71
28911;BME280;16028;42.642;23.310;2023-04-06T13:00:52;93513.94;;;5.78;56.93